sensor_id;sensor_type;location;lat;lon;timestamp;P1;durP1;ratioP1;P2;durP2;ratioP2
5730;SDS011;2890;51.950;7.668;2024-02-16T00:01:11;4.77;;;3.43;;
5730;SDS011;2890;51.950;7.668;2024-02-16T00:03:38;6.23;;;3.67;;
5730;SDS011;2890;51.950;7.668;2024-02-16T00:06:05;4.17;;;3.47;;
5730;SDS011;2890;51.950;7.668;2024-02-16T00:08:31;3.40;;;3.10;;
5730;SDS011;2890;51.950;7.668;2024-02-16T00:11:01;4.40;;;3.57;;
5730;SDS011;2890;51.950;7.668;2024-02-16T00:13:28;3.73;;;3.43;;
5730;SDS011;2890;51.950;7.668;2024-02-16T00:15:54;5.23;;;3.83;;
5730;SDS011;2890;51.950;7.668;2024-02-16T00:18:20;3.73;;;3.27;;
5730;SDS011;2890;51.950;7.668;2024-02-16T00:20:47;5.17;;;3.60;;
5730;SDS011;2890;51.950;7.668;2024-02-16T00:23:14;6.27;;;3.40;;
5730;SDS011;2890;51.950;7.668;2024-02-16T00:25:40;3.97;;;3.30;;
5730;SDS011;2890;51.950;7.668;2024-02-16T00:28:08;5.97;;;2.73;;
5730;SDS011;2890;51.950;7.668;2024-02-16T00:30:35;5.53;;;3.60;;
5730;SDS011;2890;51.950;7.668;2024-02-16T00:33:02;5.60;;;3.70;;
5730;SDS011;2890;51.950;7.668;2024-02-16T00:35:28;3.53;;;3.23;;
5730;SDS011;2890;51.950;7.668;2024-02-16T00:37:58;4.97;;;3.50;;
5730;SDS011;2890;51.950;7.668;2024-02-16T00:40:24;4.43;;;3.37;;
5730;SDS011;2890;51.950;7.668;2024-02-16T00:42:51;4.00;;;3.27;;
5730;SDS011;2890;51.950;7.668;2024-02-16T00:45:19;4.77;;;3.90;;
5730;SDS011;2890;51.950;7.668;2024-02-16T00:47:46;5.60;;;3.73;;
5730;SDS011;2890;51.950;7.668;2024-02-16T00:50:13;6.00;;;4.10;;
5730;SDS011;2890;51.950;7.668;2024-02-16T00:52:40;4.47;;;3.77;;
5730;SDS011;2890;51.950;7.668;2024-02-16T00:55:09;4.57;;;4.17;;
5730;SDS011;2890;51.950;7.668;2024-02-16T00:57:38;5.13;;;4.63;;
5730;SDS011;2890;51.950;7.668;2024-02-16T01:00:05;8.37;;;4.83;;
5730;SDS011;2890;51.950;7.668;2024-02-16T01:02:35;8.33;;;5.57;;
5730;SDS011;2890;51.950;7.668;2024-02-16T01:05:02;9.50;;;5.60;;
5730;SDS011;2890;51.950;7.668;2024-02-16T01:07:28;8.63;;;3.90;;
5730;SDS011;2890;51.950;7.668;2024-02-16T01:09:56;3.93;;;3.63;;
5730;SDS011;2890;51.950;7.668;2024-02-16T01:12:22;8.10;;;4.00;;
5730;SDS011;2890;51.950;7.668;2024-02-16T01:14:49;4.90;;;3.10;;
5730;SDS011;2890;51.950;7.668;2024-02-16T01:17:15;3.83;;;2.80;;
5730;SDS011;2890;51.950;7.668;2024-02-16T01:19:43;3.20;;;2.90;;
5730;SDS011;2890;51.950;7.668;2024-02-16T01:22:11;5.03;;;3.03;;
5730;SDS011;2890;51.950;7.668;2024-02-16T01:24:38;4.50;;;4.10;;
5730;SDS011;2890;51.950;7.668;2024-02-16T01:27:05;4.07;;;3.67;;
5730;SDS011;2890;51.950;7.668;2024-02-16T01:29:31;5.43;;;3.73;;
5730;SDS011;2890;51.950;7.668;2024-02-16T01:31:58;6.63;;;4.00;;
5730;SDS011;2890;51.950;7.668;2024-02-16T01:34:24;3.97;;;3.50;;
5730;SDS011;2890;51.950;7.668;2024-02-16T01:36:52;4.10;;;3.70;;
5730;SDS011;2890;51.950;7.668;2024-02-16T01:39:19;5.80;;;3.80;;
5730;SDS011;2890;51.950;7.668;2024-02-16T01:41:45;5.60;;;3.80;;
5730;SDS011;2890;51.950;7.668;2024-02-16T01:44:11;5.07;;;3.70;;
5730;SDS011;2890;51.950;7.668;2024-02-16T01:46:38;4.90;;;3.60;;
5730;SDS011;2890;51.950;7.668;2024-02-16T01:49:05;4.17;;;2.97;;
5730;SDS011;2890;51.950;7.668;2024-02-16T01:51:32;4.57;;;3.13;;
5730;SDS011;2890;51.950;7.668;2024-02-16T01:54:01;4.77;;;2.97;;
5730;SDS011;2890;51.950;7.668;2024-02-16T01:56:27;3.00;;;2.70;;
5730;SDS011;2890;51.950;7.668;2024-02-16T01:58:54;4.43;;;2.97;;
5730;SDS011;2890;51.950;7.668;2024-02-16T02:01:21;4.00;;;3.60;;
5730;SDS011;2890;51.950;7.668;2024-02-16T02:03:47;3.97;;;2.87;;
5730;SDS011;2890;51.950;7.668;2024-02-16T02:06:14;3.83;;;2.93;;
5730;SDS011;2890;51.950;7.668;2024-02-16T02:08:40;5.20;;;3.10;;
5730;SDS011;2890;51.950;7.668;2024-02-16T02:11:08;2.50;;;2.30;;
5730;SDS011;2890;51.950;7.668;2024-02-16T02:13:34;7.80;;;3.20;;
5730;SDS011;2890;51.950;7.668;2024-02-16T02:16:02;3.73;;;2.40;;
5730;SDS011;2890;51.950;7.668;2024-02-16T02:18:30;3.87;;;2.70;;
5730;SDS011;2890;51.950;7.668;2024-02-16T02:20:56;5.97;;;2.80;;
5730;SDS011;2890;51.950;7.668;2024-02-16T02:23:24;4.33;;;2.60;;
5730;SDS011;2890;51.950;7.668;2024-02-16T02:25:50;3.87;;;3.20;;
5730;SDS011;2890;51.950;7.668;2024-02-16T02:28:18;3.40;;;3.10;;
5730;SDS011;2890;51.950;7.668;2024-02-16T02:30:45;5.60;;;3.27;;
5730;SDS011;2890;51.950;7.668;2024-02-16T02:33:11;4.03;;;2.33;;
5730;SDS011;2890;51.950;7.668;2024-02-16T02:35:38;3.93;;;2.90;;
5730;SDS011;2890;51.950;7.668;2024-02-16T02:38:05;3.90;;;2.70;;
5730;SDS011;2890;51.950;7.668;2024-02-16T02:40:33;3.90;;;3.20;;
5730;SDS011;2890;51.950;7.668;2024-02-16T02:42:59;3.90;;;3.60;;
5730;SDS011;2890;51.950;7.668;2024-02-16T02:45:26;4.13;;;2.83;;
5730;SDS011;2890;51.950;7.668;2024-02-16T02:47:53;3.20;;;2.90;;
5730;SDS011;2890;51.950;7.668;2024-02-16T02:50:19;6.87;;;3.27;;
5730;SDS011;2890;51.950;7.668;2024-02-16T02:52:46;3.53;;;3.20;;
5730;SDS011;2890;51.950;7.668;2024-02-16T02:55:12;6.40;;;3.63;;
5730;SDS011;2890;51.950;7.668;2024-02-16T02:57:40;4.00;;;3.60;;
5730;SDS011;2890;51.950;7.668;2024-02-16T03:00:07;4.80;;;4.30;;
5730;SDS011;2890;51.950;7.668;2024-02-16T03:02:36;4.40;;;4.00;;
5730;SDS011;2890;51.950;7.668;2024-02-16T03:05:03;4.77;;;3.80;;
5730;SDS011;2890;51.950;7.668;2024-02-16T03:07:30;6.00;;;3.87;;
5730;SDS011;2890;51.950;7.668;2024-02-16T03:09:57;7.93;;;4.57;;
5730;SDS011;2890;51.950;7.668;2024-02-16T03:12:24;7.80;;;5.40;;
5730;SDS011;2890;51.950;7.668;2024-02-16T03:14:51;5.60;;;4.37;;
5730;SDS011;2890;51.950;7.668;2024-02-16T03:17:18;4.53;;;4.13;;
5730;SDS011;2890;51.950;7.668;2024-02-16T03:19:45;6.00;;;4.00;;
5730;SDS011;2890;51.950;7.668;2024-02-16T03:22:12;7.53;;;5.20;;
5730;SDS011;2890;51.950;7.668;2024-02-16T03:24:38;5.00;;;3.80;;
5730;SDS011;2890;51.950;7.668;2024-02-16T03:27:05;6.40;;;4.40;;
5730;SDS011;2890;51.950;7.668;2024-02-16T03:29:31;5.20;;;4.30;;
5730;SDS011;2890;51.950;7.668;2024-02-16T03:31:59;5.13;;;4.10;;
5730;SDS011;2890;51.950;7.668;2024-02-16T03:34:25;4.90;;;3.60;;
5730;SDS011;2890;51.950;7.668;2024-02-16T03:36:52;9.77;;;4.23;;
5730;SDS011;2890;51.950;7.668;2024-02-16T03:39:19;4.53;;;3.37;;
5730;SDS011;2890;51.950;7.668;2024-02-16T03:41:45;3.77;;;3.37;;
5730;SDS011;2890;51.950;7.668;2024-02-16T03:44:13;3.80;;;3.10;;
5730;SDS011;2890;51.950;7.668;2024-02-16T03:46:40;3.60;;;3.07;;
5730;SDS011;2890;51.950;7.668;2024-02-16T03:49:08;4.33;;;3.67;;
5730;SDS011;2890;51.950;7.668;2024-02-16T03:51:35;5.97;;;3.43;;
5730;SDS011;2890;51.950;7.668;2024-02-16T03:54:02;3.83;;;3.37;;
5730;SDS011;2890;51.950;7.668;2024-02-16T03:56:29;3.30;;;3.00;;
5730;SDS011;2890;51.950;7.668;2024-02-16T03:58:55;6.93;;;3.00;;
5730;SDS011;2890;51.950;7.668;2024-02-16T04:01:22;3.40;;;3.10;;
5730;SDS011;2890;51.950;7.668;2024-02-16T04:03:49;9.90;;;3.60;;
5730;SDS011;2890;51.950;7.668;2024-02-16T04:06:18;4.23;;;3.80;;
5730;SDS011;2890;51.950;7.668;2024-02-16T04:08:44;3.10;;;2.90;;
5730;SDS011;2890;51.950;7.668;2024-02-16T04:11:11;3.70;;;3.40;;
5730;SDS011;2890;51.950;7.668;2024-02-16T04:13:39;3.47;;;3.17;;
5730;SDS011;2890;51.950;7.668;2024-02-16T04:16:06;3.77;;;3.23;;
5730;SDS011;2890;51.950;7.668;2024-02-16T04:18:32;6.83;;;3.10;;
5730;SDS011;2890;51.950;7.668;2024-02-16T04:20:59;3.10;;;2.80;;
5730;SDS011;2890;51.950;7.668;2024-02-16T04:23:27;3.43;;;3.13;;
5730;SDS011;2890;51.950;7.668;2024-02-16T04:25:54;3.40;;;3.10;;
5730;SDS011;2890;51.950;7.668;2024-02-16T04:28:21;3.50;;;3.20;;
5730;SDS011;2890;51.950;7.668;2024-02-16T04:30:47;3.47;;;3.17;;
5730;SDS011;2890;51.950;7.668;2024-02-16T04:33:13;3.57;;;3.20;;
5730;SDS011;2890;51.950;7.668;2024-02-16T04:35:40;2.97;;;2.77;;
5730;SDS011;2890;51.950;7.668;2024-02-16T04:38:06;4.27;;;3.90;;
5730;SDS011;2890;51.950;7.668;2024-02-16T04:40:36;2.73;;;2.40;;
5730;SDS011;2890;51.950;7.668;2024-02-16T04:43:03;3.27;;;2.70;;
5730;SDS011;2890;51.950;7.668;2024-02-16T04:45:30;3.70;;;2.93;;
5730;SDS011;2890;51.950;7.668;2024-02-16T04:47:56;3.80;;;2.90;;
5730;SDS011;2890;51.950;7.668;2024-02-16T04:50:24;3.10;;;2.73;;
5730;SDS011;2890;51.950;7.668;2024-02-16T04:52:50;3.70;;;3.30;;
5730;SDS011;2890;51.950;7.668;2024-02-16T04:55:17;3.07;;;2.77;;
5730;SDS011;2890;51.950;7.668;2024-02-16T04:57:44;3.60;;;2.87;;
5730;SDS011;2890;51.950;7.668;2024-02-16T05:00:12;3.33;;;3.03;;
5730;SDS011;2890;51.950;7.668;2024-02-16T05:02:39;3.80;;;2.73;;
5730;SDS011;2890;51.950;7.668;2024-02-16T05:05:06;3.57;;;3.27;;
5730;SDS011;2890;51.950;7.668;2024-02-16T05:07:33;2.77;;;2.53;;
5730;SDS011;2890;51.950;7.668;2024-02-16T05:10:01;5.50;;;3.00;;
5730;SDS011;2890;51.950;7.668;2024-02-16T05:12:27;3.77;;;3.33;;
5730;SDS011;2890;51.950;7.668;2024-02-16T05:14:55;3.40;;;3.10;;
5730;SDS011;2890;51.950;7.668;2024-02-16T05:17:22;3.40;;;3.10;;
5730;SDS011;2890;51.950;7.668;2024-02-16T05:19:49;4.10;;;2.53;;
5730;SDS011;2890;51.950;7.668;2024-02-16T05:22:15;3.30;;;3.00;;
5730;SDS011;2890;51.950;7.668;2024-02-16T05:24:43;3.30;;;3.00;;
5730;SDS011;2890;51.950;7.668;2024-02-16T05:27:10;5.80;;;2.50;;
5730;SDS011;2890;51.950;7.668;2024-02-16T05:29:36;5.47;;;3.20;;
5730;SDS011;2890;51.950;7.668;2024-02-16T05:32:05;4.63;;;3.37;;
5730;SDS011;2890;51.950;7.668;2024-02-16T05:34:32;3.87;;;2.77;;
5730;SDS011;2890;51.950;7.668;2024-02-16T05:37:02;4.17;;;2.80;;
5730;SDS011;2890;51.950;7.668;2024-02-16T05:39:31;2.60;;;2.40;;
5730;SDS011;2890;51.950;7.668;2024-02-16T05:42:00;2.97;;;2.77;;
5730;SDS011;2890;51.950;7.668;2024-02-16T05:44:26;4.23;;;2.60;;
5730;SDS011;2890;51.950;7.668;2024-02-16T05:46:53;3.27;;;2.50;;
5730;SDS011;2890;51.950;7.668;2024-02-16T05:49:21;3.67;;;3.00;;
5730;SDS011;2890;51.950;7.668;2024-02-16T05:51:49;7.83;;;2.50;;
5730;SDS011;2890;51.950;7.668;2024-02-16T05:54:42;3.23;;;2.70;;
5730;SDS011;2890;51.950;7.668;2024-02-16T05:57:09;3.17;;;2.87;;
5730;SDS011;2890;51.950;7.668;2024-02-16T05:59:35;3.47;;;2.40;;
5730;SDS011;2890;51.950;7.668;2024-02-16T06:02:03;3.47;;;3.10;;
5730;SDS011;2890;51.950;7.668;2024-02-16T06:04:31;7.03;;;2.73;;
5730;SDS011;2890;51.950;7.668;2024-02-16T06:06:57;4.90;;;2.40;;
5730;SDS011;2890;51.950;7.668;2024-02-16T06:09:25;4.83;;;2.93;;
5730;SDS011;2890;51.950;7.668;2024-02-16T06:11:54;4.00;;;2.67;;
5730;SDS011;2890;51.950;7.668;2024-02-16T06:14:20;3.87;;;2.60;;
5730;SDS011;2890;51.950;7.668;2024-02-16T06:17:03;4.90;;;3.10;;
5730;SDS011;2890;51.950;7.668;2024-02-16T06:19:31;3.70;;;2.80;;
5730;SDS011;2890;51.950;7.668;2024-02-16T06:21:57;3.60;;;2.67;;
5730;SDS011;2890;51.950;7.668;2024-02-16T06:24:24;4.73;;;2.60;;
5730;SDS011;2890;51.950;7.668;2024-02-16T06:26:50;5.03;;;3.30;;
5730;SDS011;2890;51.950;7.668;2024-02-16T06:29:18;4.20;;;2.43;;
5730;SDS011;2890;51.950;7.668;2024-02-16T06:31:45;3.50;;;3.20;;
5730;SDS011;2890;51.950;7.668;2024-02-16T06:34:12;3.53;;;3.23;;
5730;SDS011;2890;51.950;7.668;2024-02-16T06:36:40;3.23;;;2.93;;
5730;SDS011;2890;51.950;7.668;2024-02-16T06:39:07;3.90;;;3.50;;
5730;SDS011;2890;51.950;7.668;2024-02-16T06:41:34;4.17;;;3.17;;
5730;SDS011;2890;51.950;7.668;2024-02-16T06:44:01;3.37;;;2.50;;
5730;SDS011;2890;51.950;7.668;2024-02-16T06:46:28;4.57;;;3.10;;
5730;SDS011;2890;51.950;7.668;2024-02-16T06:48:54;6.73;;;4.03;;
5730;SDS011;2890;51.950;7.668;2024-02-16T06:51:22;4.33;;;3.33;;
5730;SDS011;2890;51.950;7.668;2024-02-16T06:53:50;4.10;;;3.17;;
5730;SDS011;2890;51.950;7.668;2024-02-16T06:56:17;2.87;;;2.67;;
5730;SDS011;2890;51.950;7.668;2024-02-16T06:58:44;3.83;;;3.30;;
5730;SDS011;2890;51.950;7.668;2024-02-16T07:01:10;3.53;;;3.13;;
5730;SDS011;2890;51.950;7.668;2024-02-16T07:03:38;3.50;;;2.70;;
5730;SDS011;2890;51.950;7.668;2024-02-16T07:06:05;3.60;;;3.07;;
5730;SDS011;2890;51.950;7.668;2024-02-16T07:08:34;3.90;;;2.87;;
5730;SDS011;2890;51.950;7.668;2024-02-16T07:11:02;3.60;;;2.50;;
5730;SDS011;2890;51.950;7.668;2024-02-16T07:13:28;3.80;;;3.50;;
5730;SDS011;2890;51.950;7.668;2024-02-16T07:15:55;3.60;;;3.30;;
5730;SDS011;2890;51.950;7.668;2024-02-16T07:18:21;3.80;;;3.33;;
5730;SDS011;2890;51.950;7.668;2024-02-16T07:20:48;3.03;;;2.83;;
5730;SDS011;2890;51.950;7.668;2024-02-16T07:23:14;3.57;;;3.27;;
5730;SDS011;2890;51.950;7.668;2024-02-16T07:25:41;3.87;;;3.40;;
5730;SDS011;2890;51.950;7.668;2024-02-16T07:28:09;3.30;;;3.00;;
5730;SDS011;2890;51.950;7.668;2024-02-16T07:30:35;3.97;;;2.80;;
5730;SDS011;2890;51.950;7.668;2024-02-16T07:33:03;4.47;;;3.10;;
5730;SDS011;2890;51.950;7.668;2024-02-16T07:35:30;3.93;;;3.23;;
5730;SDS011;2890;51.950;7.668;2024-02-16T07:37:56;3.10;;;2.90;;
5730;SDS011;2890;51.950;7.668;2024-02-16T07:40:23;3.27;;;3.00;;
5730;SDS011;2890;51.950;7.668;2024-02-16T07:42:50;4.77;;;3.50;;
5730;SDS011;2890;51.950;7.668;2024-02-16T07:45:17;3.77;;;3.30;;
5730;SDS011;2890;51.950;7.668;2024-02-16T07:47:45;4.77;;;2.83;;
5730;SDS011;2890;51.950;7.668;2024-02-16T07:50:11;6.00;;;3.40;;
5730;SDS011;2890;51.950;7.668;2024-02-16T07:52:38;4.90;;;2.70;;
5730;SDS011;2890;51.950;7.668;2024-02-16T07:55:05;4.40;;;2.87;;
5730;SDS011;2890;51.950;7.668;2024-02-16T07:57:32;4.97;;;2.50;;
5730;SDS011;2890;51.950;7.668;2024-02-16T07:59:59;5.80;;;2.73;;
5730;SDS011;2890;51.950;7.668;2024-02-16T08:02:26;3.50;;;3.20;;
5730;SDS011;2890;51.950;7.668;2024-02-16T08:04:53;4.57;;;2.90;;
5730;SDS011;2890;51.950;7.668;2024-02-16T08:07:19;3.03;;;2.73;;
5730;SDS011;2890;51.950;7.668;2024-02-16T08:09:46;7.53;;;2.43;;
5730;SDS011;2890;51.950;7.668;2024-02-16T08:12:13;2.60;;;2.40;;
5730;SDS011;2890;51.950;7.668;2024-02-16T08:14:39;5.83;;;3.00;;
5730;SDS011;2890;51.950;7.668;2024-02-16T08:17:06;3.03;;;2.40;;
5730;SDS011;2890;51.950;7.668;2024-02-16T08:19:35;4.10;;;2.90;;
5730;SDS011;2890;51.950;7.668;2024-02-16T08:22:02;3.80;;;2.73;;
5730;SDS011;2890;51.950;7.668;2024-02-16T08:24:31;4.20;;;2.50;;
5730;SDS011;2890;51.950;7.668;2024-02-16T08:26:58;3.80;;;3.40;;
5730;SDS011;2890;51.950;7.668;2024-02-16T08:29:24;3.80;;;3.47;;
5730;SDS011;2890;51.950;7.668;2024-02-16T08:31:51;3.90;;;3.00;;
5730;SDS011;2890;51.950;7.668;2024-02-16T08:34:18;4.27;;;3.13;;
5730;SDS011;2890;51.950;7.668;2024-02-16T08:36:46;3.60;;;3.30;;
5730;SDS011;2890;51.950;7.668;2024-02-16T08:39:13;3.17;;;2.87;;
5730;SDS011;2890;51.950;7.668;2024-02-16T08:41:39;4.63;;;2.90;;
5730;SDS011;2890;51.950;7.668;2024-02-16T08:44:06;4.30;;;3.30;;
5730;SDS011;2890;51.950;7.668;2024-02-16T08:46:34;4.17;;;3.33;;
5730;SDS011;2890;51.950;7.668;2024-02-16T08:49:01;5.10;;;2.80;;
5730;SDS011;2890;51.950;7.668;2024-02-16T08:51:27;5.40;;;3.20;;
5730;SDS011;2890;51.950;7.668;2024-02-16T08:53:55;2.97;;;2.67;;
5730;SDS011;2890;51.950;7.668;2024-02-16T08:56:22;6.27;;;3.10;;
5730;SDS011;2890;51.950;7.668;2024-02-16T08:58:48;5.37;;;2.80;;
5730;SDS011;2890;51.950;7.668;2024-02-16T09:01:15;5.30;;;2.80;;
5730;SDS011;2890;51.950;7.668;2024-02-16T09:03:41;3.67;;;2.50;;
5730;SDS011;2890;51.950;7.668;2024-02-16T09:06:08;4.80;;;3.10;;
5730;SDS011;2890;51.950;7.668;2024-02-16T09:08:35;7.43;;;2.90;;
5730;SDS011;2890;51.950;7.668;2024-02-16T09:11:03;3.70;;;3.07;;
5730;SDS011;2890;51.950;7.668;2024-02-16T09:13:30;5.70;;;3.07;;
5730;SDS011;2890;51.950;7.668;2024-02-16T09:15:57;9.07;;;3.70;;
5730;SDS011;2890;51.950;7.668;2024-02-16T09:18:24;4.73;;;2.90;;
5730;SDS011;2890;51.950;7.668;2024-02-16T09:20:50;4.20;;;3.47;;
5730;SDS011;2890;51.950;7.668;2024-02-16T09:23:19;3.67;;;3.30;;
5730;SDS011;2890;51.950;7.668;2024-02-16T09:25:45;4.93;;;2.90;;
5730;SDS011;2890;51.950;7.668;2024-02-16T09:28:13;4.63;;;2.83;;
5730;SDS011;2890;51.950;7.668;2024-02-16T09:30:40;4.13;;;2.83;;
5730;SDS011;2890;51.950;7.668;2024-02-16T09:33:06;5.57;;;3.20;;
5730;SDS011;2890;51.950;7.668;2024-02-16T09:35:33;4.50;;;3.80;;
5730;SDS011;2890;51.950;7.668;2024-02-16T09:37:59;5.00;;;3.20;;
5730;SDS011;2890;51.950;7.668;2024-02-16T09:40:26;6.70;;;3.27;;
5730;SDS011;2890;51.950;7.668;2024-02-16T09:42:53;3.70;;;3.27;;
5730;SDS011;2890;51.950;7.668;2024-02-16T09:45:20;4.53;;;2.90;;
5730;SDS011;2890;51.950;7.668;2024-02-16T09:47:49;6.07;;;3.17;;
5730;SDS011;2890;51.950;7.668;2024-02-16T09:50:16;4.00;;;3.50;;
5730;SDS011;2890;51.950;7.668;2024-02-16T09:52:46;3.90;;;3.07;;
5730;SDS011;2890;51.950;7.668;2024-02-16T09:55:14;7.10;;;3.20;;
5730;SDS011;2890;51.950;7.668;2024-02-16T09:57:41;6.77;;;2.73;;
5730;SDS011;2890;51.950;7.668;2024-02-16T10:00:08;8.33;;;3.60;;
5730;SDS011;2890;51.950;7.668;2024-02-16T10:02:41;10.60;;;3.23;;
5730;SDS011;2890;51.950;7.668;2024-02-16T10:05:23;3.90;;;3.50;;
5730;SDS011;2890;51.950;7.668;2024-02-16T10:07:50;6.23;;;2.97;;
5730;SDS011;2890;51.950;7.668;2024-02-16T10:10:19;7.23;;;5.43;;
5730;SDS011;2890;51.950;7.668;2024-02-16T10:12:47;4.30;;;3.30;;
5730;SDS011;2890;51.950;7.668;2024-02-16T10:15:18;6.50;;;3.33;;
5730;SDS011;2890;51.950;7.668;2024-02-16T10:17:56;3.90;;;3.30;;
5730;SDS011;2890;51.950;7.668;2024-02-16T10:20:23;5.50;;;3.23;;
5730;SDS011;2890;51.950;7.668;2024-02-16T10:22:49;4.07;;;3.30;;
5730;SDS011;2890;51.950;7.668;2024-02-16T10:25:17;3.90;;;3.17;;
5730;SDS011;2890;51.950;7.668;2024-02-16T10:27:45;4.47;;;3.57;;
5730;SDS011;2890;51.950;7.668;2024-02-16T10:30:12;5.83;;;3.43;;
5730;SDS011;2890;51.950;7.668;2024-02-16T10:35:32;5.87;;;3.40;;
5730;SDS011;2890;51.950;7.668;2024-02-16T10:37:59;7.03;;;3.43;;
5730;SDS011;2890;51.950;7.668;2024-02-16T10:40:29;4.83;;;3.10;;
5730;SDS011;2890;51.950;7.668;2024-02-16T10:42:57;5.83;;;3.73;;
5730;SDS011;2890;51.950;7.668;2024-02-16T10:45:28;8.70;;;3.60;;
5730;SDS011;2890;51.950;7.668;2024-02-16T10:47:55;4.23;;;3.07;;
5730;SDS011;2890;51.950;7.668;2024-02-16T10:50:23;4.70;;;3.53;;
5730;SDS011;2890;51.950;7.668;2024-02-16T10:52:50;5.40;;;3.13;;
5730;SDS011;2890;51.950;7.668;2024-02-16T10:55:16;7.43;;;3.50;;
5730;SDS011;2890;51.950;7.668;2024-02-16T10:57:43;4.90;;;3.40;;
5730;SDS011;2890;51.950;7.668;2024-02-16T11:00:11;8.63;;;4.20;;
5730;SDS011;2890;51.950;7.668;2024-02-16T11:02:53;8.93;;;3.60;;
5730;SDS011;2890;51.950;7.668;2024-02-16T11:05:32;6.90;;;3.73;;
5730;SDS011;2890;51.950;7.668;2024-02-16T11:08:00;9.03;;;3.80;;
5730;SDS011;2890;51.950;7.668;2024-02-16T11:10:27;6.73;;;6.13;;
5730;SDS011;2890;51.950;7.668;2024-02-16T11:12:53;7.47;;;4.10;;
5730;SDS011;2890;51.950;7.668;2024-02-16T11:15:26;5.20;;;4.80;;
5730;SDS011;2890;51.950;7.668;2024-02-16T11:17:55;5.90;;;3.90;;
5730;SDS011;2890;51.950;7.668;2024-02-16T11:20:23;5.50;;;3.40;;
5730;SDS011;2890;51.950;7.668;2024-02-16T11:22:52;10.40;;;4.60;;
5730;SDS011;2890;51.950;7.668;2024-02-16T11:25:18;6.10;;;3.70;;
5730;SDS011;2890;51.950;7.668;2024-02-16T11:27:45;8.63;;;4.43;;
5730;SDS011;2890;51.950;7.668;2024-02-16T11:30:12;8.37;;;4.77;;
5730;SDS011;2890;51.950;7.668;2024-02-16T11:32:44;4.30;;;3.90;;
5730;SDS011;2890;51.950;7.668;2024-02-16T11:35:55;11.27;;;4.60;;
5730;SDS011;2890;51.950;7.668;2024-02-16T11:38:23;5.60;;;4.00;;
5730;SDS011;2890;51.950;7.668;2024-02-16T11:40:54;6.90;;;4.07;;
5730;SDS011;2890;51.950;7.668;2024-02-16T11:43:21;6.90;;;4.90;;
5730;SDS011;2890;51.950;7.668;2024-02-16T11:45:48;5.10;;;4.47;;
5730;SDS011;2890;51.950;7.668;2024-02-16T11:48:18;5.07;;;4.57;;
5730;SDS011;2890;51.950;7.668;2024-02-16T11:50:46;5.90;;;3.87;;
5730;SDS011;2890;51.950;7.668;2024-02-16T11:53:15;6.70;;;5.07;;
5730;SDS011;2890;51.950;7.668;2024-02-16T11:55:47;7.77;;;4.63;;
5730;SDS011;2890;51.950;7.668;2024-02-16T11:58:15;21.17;;;5.00;;
5730;SDS011;2890;51.950;7.668;2024-02-16T12:00:42;9.87;;;5.63;;
5730;SDS011;2890;51.950;7.668;2024-02-16T12:03:09;7.30;;;6.10;;
5730;SDS011;2890;51.950;7.668;2024-02-16T12:05:35;8.67;;;5.70;;
5730;SDS011;2890;51.950;7.668;2024-02-16T12:08:02;6.37;;;5.87;;
5730;SDS011;2890;51.950;7.668;2024-02-16T12:10:29;7.50;;;6.87;;
5730;SDS011;2890;51.950;7.668;2024-02-16T12:12:57;10.43;;;6.23;;
5730;SDS011;2890;51.950;7.668;2024-02-16T12:15:24;7.47;;;6.27;;
5730;SDS011;2890;51.950;7.668;2024-02-16T12:20:35;9.53;;;6.13;;
5730;SDS011;2890;51.950;7.668;2024-02-16T12:23:10;9.23;;;6.40;;
5730;SDS011;2890;51.950;7.668;2024-02-16T12:25:37;10.43;;;6.87;;
5730;SDS011;2890;51.950;7.668;2024-02-16T12:28:05;7.73;;;6.00;;
5730;SDS011;2890;51.950;7.668;2024-02-16T12:30:33;11.83;;;6.20;;
5730;SDS011;2890;51.950;7.668;2024-02-16T12:32:59;10.00;;;7.30;;
5730;SDS011;2890;51.950;7.668;2024-02-16T12:35:25;12.97;;;8.07;;
5730;SDS011;2890;51.950;7.668;2024-02-16T12:37:52;15.40;;;7.27;;
5730;SDS011;2890;51.950;7.668;2024-02-16T12:40:18;9.47;;;7.00;;
5730;SDS011;2890;51.950;7.668;2024-02-16T12:42:45;12.00;;;7.30;;
5730;SDS011;2890;51.950;7.668;2024-02-16T12:45:14;13.40;;;6.97;;
5730;SDS011;2890;51.950;7.668;2024-02-16T12:47:41;10.67;;;6.43;;
5730;SDS011;2890;51.950;7.668;2024-02-16T12:50:08;7.73;;;6.70;;
5730;SDS011;2890;51.950;7.668;2024-02-16T12:52:34;14.23;;;6.97;;
5730;SDS011;2890;51.950;7.668;2024-02-16T12:55:03;14.07;;;6.83;;
5730;SDS011;2890;51.950;7.668;2024-02-16T12:57:31;11.43;;;6.40;;
5730;SDS011;2890;51.950;7.668;2024-02-16T12:59:57;7.80;;;6.20;;
5730;SDS011;2890;51.950;7.668;2024-02-16T13:02:25;7.27;;;6.23;;
5730;SDS011;2890;51.950;7.668;2024-02-16T13:04:52;10.87;;;6.73;;
5730;SDS011;2890;51.950;7.668;2024-02-16T13:07:19;9.13;;;6.27;;
5730;SDS011;2890;51.950;7.668;2024-02-16T13:09:45;6.33;;;5.60;;
5730;SDS011;2890;51.950;7.668;2024-02-16T13:12:12;9.33;;;6.17;;
5730;SDS011;2890;51.950;7.668;2024-02-16T13:14:38;8.43;;;6.83;;
5730;SDS011;2890;51.950;7.668;2024-02-16T13:17:05;10.27;;;6.33;;
5730;SDS011;2890;51.950;7.668;2024-02-16T13:19:33;6.10;;;5.50;;
5730;SDS011;2890;51.950;7.668;2024-02-16T13:22:00;12.33;;;6.27;;
5730;SDS011;2890;51.950;7.668;2024-02-16T13:24:26;10.97;;;6.37;;
5730;SDS011;2890;51.950;7.668;2024-02-16T13:26:53;13.97;;;6.67;;
5730;SDS011;2890;51.950;7.668;2024-02-16T13:29:19;13.30;;;7.13;;
5730;SDS011;2890;51.950;7.668;2024-02-16T13:31:46;7.37;;;6.60;;
5730;SDS011;2890;51.950;7.668;2024-02-16T13:34:12;8.90;;;7.07;;
5730;SDS011;2890;51.950;7.668;2024-02-16T13:36:41;11.47;;;7.10;;
5730;SDS011;2890;51.950;7.668;2024-02-16T13:39:07;10.20;;;6.90;;
5730;SDS011;2890;51.950;7.668;2024-02-16T13:41:34;10.03;;;6.83;;
5730;SDS011;2890;51.950;7.668;2024-02-16T13:44:01;15.03;;;7.10;;
5730;SDS011;2890;51.950;7.668;2024-02-16T13:46:27;11.40;;;7.60;;
5730;SDS011;2890;51.950;7.668;2024-02-16T13:48:54;13.60;;;8.00;;
5730;SDS011;2890;51.950;7.668;2024-02-16T13:51:21;13.30;;;8.17;;
5730;SDS011;2890;51.950;7.668;2024-02-16T13:53:49;11.50;;;8.77;;
5730;SDS011;2890;51.950;7.668;2024-02-16T13:56:16;10.60;;;8.63;;
5730;SDS011;2890;51.950;7.668;2024-02-16T13:58:43;14.60;;;9.70;;
5730;SDS011;2890;51.950;7.668;2024-02-16T14:01:09;17.00;;;10.57;;
5730;SDS011;2890;51.950;7.668;2024-02-16T14:03:36;17.77;;;10.70;;
5730;SDS011;2890;51.950;7.668;2024-02-16T14:06:02;19.33;;;11.90;;
5730;SDS011;2890;51.950;7.668;2024-02-16T14:08:30;18.10;;;12.30;;
5730;SDS011;2890;51.950;7.668;2024-02-16T14:10:58;12.37;;;11.13;;
5730;SDS011;2890;51.950;7.668;2024-02-16T14:13:25;15.00;;;11.70;;
5730;SDS011;2890;51.950;7.668;2024-02-16T14:15:52;20.00;;;13.10;;
5730;SDS011;2890;51.950;7.668;2024-02-16T14:18:18;19.77;;;14.50;;
5730;SDS011;2890;51.950;7.668;2024-02-16T14:20:45;16.20;;;14.50;;
5730;SDS011;2890;51.950;7.668;2024-02-16T14:23:11;18.40;;;14.80;;
5730;SDS011;2890;51.950;7.668;2024-02-16T14:25:38;16.13;;;14.50;;
5730;SDS011;2890;51.950;7.668;2024-02-16T14:28:06;23.30;;;16.50;;
5730;SDS011;2890;51.950;7.668;2024-02-16T14:30:33;18.80;;;16.17;;
5730;SDS011;2890;51.950;7.668;2024-02-16T14:33:00;26.20;;;17.50;;
5730;SDS011;2890;51.950;7.668;2024-02-16T14:35:29;25.90;;;17.47;;
5730;SDS011;2890;51.950;7.668;2024-02-16T14:37:56;21.23;;;17.10;;
5730;SDS011;2890;51.950;7.668;2024-02-16T14:40:23;25.97;;;18.10;;
5730;SDS011;2890;51.950;7.668;2024-02-16T14:42:50;28.30;;;18.07;;
5730;SDS011;2890;51.950;7.668;2024-02-16T14:45:18;23.93;;;17.70;;
5730;SDS011;2890;51.950;7.668;2024-02-16T14:47:46;26.13;;;19.33;;
5730;SDS011;2890;51.950;7.668;2024-02-16T14:50:12;25.33;;;18.63;;
5730;SDS011;2890;51.950;7.668;2024-02-16T14:52:39;29.80;;;20.20;;
5730;SDS011;2890;51.950;7.668;2024-02-16T14:55:06;37.70;;;22.77;;
5730;SDS011;2890;51.950;7.668;2024-02-16T14:57:35;26.37;;;20.00;;
5730;SDS011;2890;51.950;7.668;2024-02-16T15:00:02;27.90;;;20.60;;
5730;SDS011;2890;51.950;7.668;2024-02-16T15:02:30;28.43;;;22.30;;
5730;SDS011;2890;51.950;7.668;2024-02-16T15:04:56;29.70;;;21.33;;
5730;SDS011;2890;51.950;7.668;2024-02-16T15:07:24;32.50;;;21.47;;
5730;SDS011;2890;51.950;7.668;2024-02-16T15:09:51;29.87;;;21.27;;
5730;SDS011;2890;51.950;7.668;2024-02-16T15:12:17;29.30;;;21.23;;
5730;SDS011;2890;51.950;7.668;2024-02-16T15:14:45;30.47;;;21.20;;
5730;SDS011;2890;51.950;7.668;2024-02-16T15:17:12;28.53;;;21.43;;
5730;SDS011;2890;51.950;7.668;2024-02-16T15:19:40;30.93;;;22.07;;